Flinter Rose — PBUB — position and weather

sailwx.info

Track history (hours):
 
Tides and Currents Weather Stations Pressure Air Temp Water Temp Dewpoint Dewpoint Depression Visibility Wind Speed Wind Dir Waves Ship Positions

Flinter Rose

Last reported at 2014-Jul-30 05:24 UTC. Time now 2014-Aug-01 07:55 UTC.
Position N 42°41' E 010°30'.

Length 101 m; draft 6.5 m.

Type: Cargo ship. MMSI: 246227000.

Date/timePositionNaut miles runAvg speedWind from/ knotsBaromVisibWave heightAir tempDewpointWater temp
2014-Jul-30 05:24N 42°41' E 010°30'8 9.5
2014-Jul-30 04:31N 42°36' E 010°21'9 9.3
2014-Jul-30 03:30N 42°30' E 010°11'358 9.2
2014-Jul-28 12:32N 39°07' E 003°41'1010.1
2014-Jul-28 11:33N 39°02' E 003°30'1010.2
2014-Jul-28 10:33N 38°57' E 003°18'1010.3
2014-Jul-28 09:33N 38°51' E 003°07'1010.3
2014-Jul-28 08:33N 38°46' E 002°56'1010.4
2014-Jul-28 07:33N 38°41' E 002°44'1010.4
2014-Jul-28 06:33N 38°35' E 002°33'1010.3
2014-Jul-28 05:33N 38°30' E 002°21'1010.4
2014-Jul-28 04:33N 38°25' E 002°10'1310.7
2014-Jul-28 03:20N 38°18' E 001°55'9310.0
2014-Jul-27 18:04N 37°31' E 000°14'15 9.9
2014-Jul-27 16:30N 37°23' W 000°03'1010.1
2014-Jul-27 15:33N 37°18' W 000°13'27510.2
2014-Jul-26 12:33N 35°55' W 005°39'7110.0
2014-Jul-26 05:27N 36°06' W 007°06'29 9.4
2014-Jul-26 02:25N 36°13' W 007°40'9 9.5
2014-Jul-26 01:28N 36°15' W 007°51'30 9.3
2014-Jul-25 22:15N 36°23' W 008°27'7 9.8
2014-Jul-25 21:32N 36°25' W 008°35'21 9.7
2014-Jul-25 19:19N 36°31' W 009°01'8 9.7
2014-Jul-25 18:29N 36°32' W 009°11'87 9.6
2014-Jul-25 09:24N 37°53' W 009°52'9 9.6
2014-Jul-25 08:30N 38°01' W 009°55'910.0
2014-Jul-25 07:33N 38°11' W 009°57'22 9.7
2014-Jul-25 05:16N 38°32' W 010°04'8 9.7
2014-Jul-25 04:24N 38°40' W 010°06'21 9.8
2014-Jul-25 02:13N 39°02' W 010°06'  
2014-Jul-22 08:33N 48°53' W 005°48'259 9.8
2014-Jul-21 06:07N 50°35' E 000°19'5 9.5
2014-Jul-21 05:33N 50°37' E 000°27'9 9.0
2014-Jul-21 04:34N 50°40' E 000°40'9 9.3
2014-Jul-21 03:34N 50°46' E 000°52'3310.9
2014-Jul-21 00:34N 51°07' E 001°32'1110.6
2014-Jul-20 23:33N 51°14' E 001°45'10 9.8
2014-Jul-20 22:33N 51°21' E 001°55'8 7.6
2014-Jul-20 21:33N 51°23' E 002°06'9 9.1
2014-Jul-20 20:33N 51°21' E 002°21'9 8.6
2014-Jul-20 19:33N 51°23' E 002°34'8 8.3
2014-Jul-20 18:33N 51°22' E 002°47'9 8.8
2014-Jul-20 17:33N 51°24' E 003°01'12 9.0
2014-Jul-20 16:13N 51°25' E 003°20'6 9.2
2014-Jul-20 15:33N 51°25' E 003°30'8 8.0
2014-Jul-20 14:33N 51°24' E 003°43'6 6.0
2014-Jul-20 13:33N 51°20' E 003°49'6 6.2
2014-Jul-20 12:34N 51°14' E 003°48'3 2.9
2014-Jul-20 11:32N 51°11' E 003°48'0 0.0
2014-Jul-20 10:29N 51°11' E 003°48'0 0.0
2014-Jul-20 09:32N 51°11' E 003°48'0 0.0
2014-Jul-20 08:29N 51°11' E 003°48'0 0.0
2014-Jul-20 07:32N 51°11' E 003°48'0 0.0
2014-Jul-20 06:32N 51°11' E 003°48'0 0.0
2014-Jul-20 05:29N 51°11' E 003°48'  
Track history (hours):
 
Tides and Currents Weather Stations Pressure Air Temp Water Temp Dewpoint Dewpoint Depression Visibility Wind Speed Wind Dir Waves Ship Positions

Flinter Rose

Last reported at 2014-Jul-30 05:24 UTC. Time now 2014-Aug-01 07:55 UTC.
Position N 42°41' E 010°30'.

Length 101 m; draft 6.5 m.

Type: Cargo ship. MMSI: 246227000.

Date/timePositionNaut miles runAvg speedWind from/ knotsBaromVisibWave heightAir tempDewpointWater temp
2014-Jul-30 05:24N 42°41' E 010°30'8 9.5
2014-Jul-30 04:31N 42°36' E 010°21'9 9.3
2014-Jul-30 03:30N 42°30' E 010°11'358 9.2
2014-Jul-28 12:32N 39°07' E 003°41'1010.1
2014-Jul-28 11:33N 39°02' E 003°30'1010.2
2014-Jul-28 10:33N 38°57' E 003°18'1010.3
2014-Jul-28 09:33N 38°51' E 003°07'1010.3
2014-Jul-28 08:33N 38°46' E 002°56'1010.4
2014-Jul-28 07:33N 38°41' E 002°44'1010.4
2014-Jul-28 06:33N 38°35' E 002°33'1010.3
2014-Jul-28 05:33N 38°30' E 002°21'1010.4
2014-Jul-28 04:33N 38°25' E 002°10'1310.7
2014-Jul-28 03:20N 38°18' E 001°55'9310.0
2014-Jul-27 18:04N 37°31' E 000°14'15 9.9
2014-Jul-27 16:30N 37°23' W 000°03'1010.1
2014-Jul-27 15:33N 37°18' W 000°13'27510.2
2014-Jul-26 12:33N 35°55' W 005°39'7110.0
2014-Jul-26 05:27N 36°06' W 007°06'29 9.4
2014-Jul-26 02:25N 36°13' W 007°40'9 9.5
2014-Jul-26 01:28N 36°15' W 007°51'30 9.3
2014-Jul-25 22:15N 36°23' W 008°27'7 9.8
2014-Jul-25 21:32N 36°25' W 008°35'21 9.7
2014-Jul-25 19:19N 36°31' W 009°01'8 9.7
2014-Jul-25 18:29N 36°32' W 009°11'87 9.6
2014-Jul-25 09:24N 37°53' W 009°52'9 9.6
2014-Jul-25 08:30N 38°01' W 009°55'910.0
2014-Jul-25 07:33N 38°11' W 009°57'22 9.7
2014-Jul-25 05:16N 38°32' W 010°04'8 9.7
2014-Jul-25 04:24N 38°40' W 010°06'21 9.8
2014-Jul-25 02:13N 39°02' W 010°06'  
2014-Jul-22 08:33N 48°53' W 005°48'259 9.8
2014-Jul-21 06:07N 50°35' E 000°19'5 9.5
2014-Jul-21 05:33N 50°37' E 000°27'9 9.0
2014-Jul-21 04:34N 50°40' E 000°40'9 9.3
2014-Jul-21 03:34N 50°46' E 000°52'3310.9
2014-Jul-21 00:34N 51°07' E 001°32'1110.6
2014-Jul-20 23:33N 51°14' E 001°45'10 9.8
2014-Jul-20 22:33N 51°21' E 001°55'8 7.6
2014-Jul-20 21:33N 51°23' E 002°06'9 9.1
2014-Jul-20 20:33N 51°21' E 002°21'9 8.6
2014-Jul-20 19:33N 51°23' E 002°34'8 8.3
2014-Jul-20 18:33N 51°22' E 002°47'9 8.8
2014-Jul-20 17:33N 51°24' E 003°01'12 9.0
2014-Jul-20 16:13N 51°25' E 003°20'6 9.2
2014-Jul-20 15:33N 51°25' E 003°30'8 8.0
2014-Jul-20 14:33N 51°24' E 003°43'6 6.0
2014-Jul-20 13:33N 51°20' E 003°49'6 6.2
2014-Jul-20 12:34N 51°14' E 003°48'3 2.9
2014-Jul-20 11:32N 51°11' E 003°48'0 0.0
2014-Jul-20 10:29N 51°11' E 003°48'0 0.0
2014-Jul-20 09:32N 51°11' E 003°48'0 0.0
2014-Jul-20 08:29N 51°11' E 003°48'0 0.0
2014-Jul-20 07:32N 51°11' E 003°48'0 0.0
2014-Jul-20 06:32N 51°11' E 003°48'0 0.0
2014-Jul-20 05:29N 51°11' E 003°48'  

Dump ship's entire track history